createdAt,value
2022-12-27T07:57:05.375Z,10.30
2022-12-27T07:59:32.507Z,5.32
2022-12-27T08:02:05.830Z,8.20
2022-12-27T08:04:33.699Z,9.32
2022-12-27T08:07:08.122Z,7.03
2022-12-27T08:09:36.238Z,11.82
2022-12-27T08:12:03.303Z,7.07
2022-12-27T08:14:30.635Z,13.25
2022-12-27T08:16:58.786Z,14.43
2022-12-27T08:19:25.889Z,10.55
2022-12-27T08:21:52.919Z,7.30
2022-12-27T08:24:20.021Z,10.02
2022-12-27T08:26:47.069Z,7.90
2022-12-27T08:29:14.108Z,9.00
2022-12-27T08:31:41.742Z,10.02
2022-12-27T08:34:08.807Z,10.90
2022-12-27T08:36:54.514Z,10.30
2022-12-27T08:39:22.880Z,11.63
2022-12-27T08:41:50.030Z,14.50
2022-12-27T08:44:17.081Z,6.47
2022-12-27T08:46:44.164Z,12.43
2022-12-27T08:49:11.248Z,9.70
2022-12-27T08:51:41.139Z,12.50
2022-12-27T08:54:08.861Z,9.30
2022-12-27T08:56:35.924Z,9.52
2022-12-27T08:59:03.027Z,8.80
2022-12-27T09:01:30.215Z,9.27
2022-12-27T09:03:57.504Z,9.70
2022-12-27T09:06:24.851Z,9.40
2022-12-27T09:08:52.198Z,7.63
2022-12-27T09:11:20.506Z,7.60
2022-12-27T09:13:47.578Z,8.20
2022-12-27T09:16:15.602Z,10.07
2022-12-27T09:18:42.773Z,10.02
2022-12-27T09:21:10.760Z,8.35
2022-12-27T09:23:37.967Z,7.10
2022-12-27T09:26:08.719Z,9.45
2022-12-27T09:28:36.291Z,17.50
2022-12-27T09:31:03.466Z,11.43
2022-12-27T09:33:30.596Z,7.43
2022-12-27T09:36:10.755Z,8.25
2022-12-27T09:38:37.870Z,8.80
2022-12-27T09:41:05.979Z,5.20
2022-12-27T09:43:51.733Z,8.88
2022-12-27T09:46:20.415Z,7.10
2022-12-27T09:48:47.436Z,11.82
2022-12-27T09:51:17.022Z,8.50
2022-12-27T09:53:44.312Z,5.75
2022-12-27T09:56:15.173Z,6.50
2022-12-27T09:58:50.152Z,5.05
2022-12-27T10:01:24.752Z,8.18
2022-12-27T10:03:52.106Z,8.63
2022-12-27T10:06:31.407Z,8.38
2022-12-27T10:09:01.261Z,5.53
2022-12-27T10:11:36.181Z,4.43
2022-12-27T10:14:07.018Z,8.07
2022-12-27T10:16:49.672Z,7.88
2022-12-27T10:19:16.739Z,8.73
2022-12-27T10:22:09.983Z,5.43
2022-12-27T10:24:46.104Z,6.85
2022-12-27T10:27:14.451Z,6.03
2022-12-27T10:29:41.531Z,9.18
2022-12-27T10:32:09.981Z,6.35
2022-12-27T10:34:37.015Z,9.27
2022-12-27T10:37:04.161Z,6.47
2022-12-27T10:39:32.253Z,4.80
2022-12-27T10:42:17.952Z,8.27
2022-12-27T10:44:45.063Z,5.68
2022-12-27T10:47:12.140Z,7.68
2022-12-27T10:49:39.216Z,7.90
2022-12-27T10:52:19.274Z,7.45
2022-12-27T10:54:55.909Z,9.85
2022-12-27T10:57:30.000Z,9.50
2022-12-27T11:00:09.351Z,7.95
2022-12-27T11:02:36.419Z,9.07
2022-12-27T11:05:03.574Z,7.30
2022-12-27T11:07:34.022Z,6.85
2022-12-27T11:10:08.302Z,11.73
2022-12-27T11:12:36.153Z,8.80
2022-12-27T11:15:21.479Z,7.43
2022-12-27T11:17:49.678Z,7.05
2022-12-27T11:20:19.863Z,5.82
2022-12-27T11:23:07.185Z,7.30
2022-12-27T11:25:34.264Z,9.90
2022-12-27T11:28:05.252Z,8.80
2022-12-27T11:30:40.110Z,12.32
2022-12-27T11:33:08.417Z,5.78
2022-12-27T11:35:37.348Z,5.45
2022-12-27T11:38:04.427Z,7.00
2022-12-27T11:40:34.670Z,10.73
2022-12-27T11:43:11.404Z,9.40
2022-12-27T11:45:43.160Z,7.57
2022-12-27T11:48:29.182Z,6.50
2022-12-27T11:51:15.006Z,11.15
2022-12-27T11:54:00.842Z,4.13
2022-12-27T11:56:28.501Z,4.78
2022-12-27T11:59:14.954Z,11.48
2022-12-27T12:01:51.436Z,5.90
2022-12-27T12:04:37.423Z,8.38
2022-12-27T12:07:16.531Z,11.27
2022-12-27T12:09:43.588Z,9.88
2022-12-27T12:12:26.677Z,7.10
2022-12-27T12:14:53.761Z,6.38
2022-12-27T12:17:28.621Z,8.50
2022-12-27T12:20:01.235Z,6.13
2022-12-27T12:22:45.959Z,8.88
2022-12-27T12:25:35.922Z,11.60
2022-12-27T12:28:23.316Z,16.08
2022-12-27T12:31:02.241Z,10.23
2022-12-27T12:33:58.355Z,6.45
2022-12-27T12:36:25.451Z,5.85
2022-12-27T12:38:54.181Z,5.90
2022-12-27T12:41:21.197Z,5.30
2022-12-27T12:44:17.579Z,6.72
2022-12-27T12:47:03.680Z,4.93
2022-12-27T12:49:30.758Z,8.52
2022-12-27T12:52:06.695Z,5.82
2022-12-27T12:54:52.438Z,6.45
2022-12-27T12:57:52.032Z,6.25
2022-12-27T13:00:37.627Z,6.60
2022-12-27T13:03:10.690Z,7.40
2022-12-27T13:05:40.903Z,4.85
2022-12-27T13:08:23.541Z,8.18
2022-12-27T13:10:50.606Z,7.18
2022-12-27T13:13:26.935Z,6.50
2022-12-27T13:16:12.954Z,5.60
2022-12-27T13:18:47.440Z,9.13
2022-12-27T13:21:20.936Z,7.45
2022-12-27T13:23:51.123Z,6.93
2022-12-27T13:26:20.705Z,7.05
2022-12-27T13:29:03.131Z,6.90
2022-12-27T13:31:42.215Z,7.05
2022-12-27T13:34:21.100Z,8.43
2022-12-27T13:37:07.043Z,7.28
2022-12-27T13:39:46.372Z,8.07
2022-12-27T13:42:33.435Z,8.15
2022-12-27T13:45:03.832Z,4.88
2022-12-27T13:47:30.860Z,9.75
2022-12-27T13:50:00.903Z,10.77
2022-12-27T13:52:39.830Z,12.05
2022-12-27T13:55:22.152Z,6.43
2022-12-27T13:58:07.227Z,11.73
2022-12-27T14:00:54.517Z,10.05
2022-12-27T14:03:44.535Z,11.73
2022-12-27T14:06:11.680Z,11.55
2022-12-27T14:08:57.292Z,14.23
2022-12-27T14:11:24.333Z,14.20
2022-12-27T14:13:51.336Z,10.75
2022-12-27T14:16:22.386Z,7.75
2022-12-27T14:18:55.505Z,11.70
2022-12-27T14:21:25.587Z,13.80
2022-12-27T14:24:01.763Z,8.45
2022-12-27T14:26:37.961Z,13.48
2022-12-27T14:29:08.204Z,22.30
2022-12-27T14:31:44.198Z,10.52
2022-12-27T14:34:26.280Z,8.40
2022-12-27T14:37:12.001Z,9.75
2022-12-27T14:39:57.337Z,7.38
2022-12-27T14:42:24.442Z,8.43
2022-12-27T14:44:57.515Z,13.52
2022-12-27T14:47:42.953Z,9.27
2022-12-27T14:50:28.792Z,8.35
2022-12-27T14:53:16.242Z,6.82
2022-12-27T14:56:03.631Z,13.45
2022-12-27T14:58:30.703Z,12.80
2022-12-27T15:01:06.321Z,11.55
2022-12-27T15:03:47.622Z,14.50
2022-12-27T15:06:33.357Z,10.00
2022-12-27T15:09:12.609Z,9.77
2022-12-27T15:11:44.701Z,10.50
2022-12-27T15:14:17.482Z,14.75
2022-12-27T15:17:03.458Z,10.68
2022-12-27T15:19:30.579Z,11.82
2022-12-27T15:22:16.212Z,14.60
2022-12-27T15:25:01.964Z,15.10
2022-12-27T15:27:34.204Z,11.93
2022-12-27T15:30:10.361Z,12.88
2022-12-27T15:32:52.682Z,9.18
2022-12-27T15:35:39.777Z,11.38
2022-12-27T15:38:16.373Z,13.63
2022-12-27T15:40:47.899Z,11.85
2022-12-27T15:43:27.451Z,14.75
2022-12-27T15:46:06.804Z,15.18
2022-12-27T15:48:53.421Z,9.32
2022-12-27T15:51:20.949Z,13.57
2022-12-27T15:53:54.057Z,9.52
2022-12-27T15:56:39.750Z,17.02
2022-12-27T15:59:25.503Z,14.80
2022-12-27T16:02:11.463Z,14.85
2022-12-27T16:04:48.897Z,11.38
2022-12-27T16:07:34.911Z,12.50
2022-12-27T16:10:21.941Z,9.55
2022-12-27T16:12:49.050Z,15.63
2022-12-27T16:15:34.884Z,17.40
2022-12-27T16:18:02.299Z,17.75
2022-12-27T16:20:29.491Z,12.25
2022-12-27T16:23:00.882Z,9.63
2022-12-27T16:25:31.269Z,10.98
2022-12-27T16:28:08.778Z,13.57
2022-12-27T16:30:57.497Z,16.38
2022-12-27T16:33:27.720Z,12.20
2022-12-27T16:36:15.749Z,8.23
2022-12-27T16:38:46.309Z,15.85
2022-12-27T16:43:44.956Z,13.98
2022-12-27T16:46:20.398Z,10.77
2022-12-27T16:49:03.741Z,14.05
2022-12-27T16:51:34.360Z,13.55
2022-12-27T16:54:20.207Z,10.95
2022-12-27T16:56:48.223Z,34.53
2022-12-27T16:59:34.264Z,16.02
2022-12-27T17:02:01.722Z,13.93
2022-12-27T17:04:47.541Z,12.82
2022-12-27T17:07:34.583Z,14.80
2022-12-27T17:10:21.646Z,16.05
2022-12-27T17:12:48.702Z,12.75
2022-12-27T17:15:15.831Z,19.35
2022-12-27T17:17:44.106Z,13.43
2022-12-27T17:20:15.480Z,16.33
2022-12-27T17:22:42.544Z,18.48
2022-12-27T17:25:15.167Z,9.80
2022-12-27T17:27:45.429Z,19.88
2022-12-27T17:30:13.030Z,13.35
2022-12-27T17:33:02.437Z,15.60
2022-12-27T17:35:44.576Z,14.35
2022-12-27T17:38:30.309Z,14.80
2022-12-27T17:41:15.154Z,13.43
2022-12-27T17:44:05.396Z,17.50
2022-12-27T17:46:38.650Z,14.32
2022-12-27T17:49:06.576Z,18.65
2022-12-27T17:51:33.882Z,13.15
2022-12-27T17:54:39.348Z,16.45
2022-12-27T17:57:25.559Z,14.63
2022-12-27T17:59:52.636Z,15.82
2022-12-27T18:02:25.873Z,14.77
2022-12-27T18:04:53.615Z,12.38
2022-12-27T18:07:30.449Z,14.82
2022-12-27T18:10:07.932Z,20.02
2022-12-27T18:12:38.616Z,14.43
2022-12-27T18:15:13.492Z,16.25
2022-12-27T18:17:48.947Z,19.73
2022-12-27T18:20:28.250Z,17.50
2022-12-27T18:23:01.345Z,14.73
2022-12-27T18:25:28.428Z,14.18
2022-12-27T18:28:02.141Z,13.77
2022-12-27T18:30:29.550Z,19.58
2022-12-27T18:32:56.637Z,16.27
2022-12-27T18:35:25.104Z,19.30
2022-12-27T18:37:52.290Z,14.15
2022-12-27T18:40:19.799Z,19.50
2022-12-27T18:42:51.174Z,15.30
2022-12-27T18:45:22.048Z,19.17
2022-12-27T18:47:49.668Z,15.85
2022-12-27T18:50:18.398Z,15.07
2022-12-27T18:52:49.642Z,19.20
2022-12-27T18:55:20.938Z,13.00
2022-12-27T18:57:48.235Z,16.00
2022-12-27T19:00:19.651Z,15.32
2022-12-27T19:02:46.932Z,15.23
2022-12-27T19:05:14.064Z,17.95
2022-12-27T19:07:41.439Z,17.73
2022-12-27T19:10:18.025Z,19.75
2022-12-27T19:12:45.203Z,15.10
2022-12-27T19:15:36.858Z,16.30
2022-12-27T19:18:07.402Z,17.58
2022-12-27T19:23:02.523Z,16.98
2022-12-27T19:25:33.992Z,22.40
2022-12-27T19:28:04.169Z,18.15
2022-12-27T19:30:31.284Z,19.58
2022-12-27T19:32:58.463Z,19.88
2022-12-27T19:35:25.518Z,15.68
2022-12-27T19:37:52.598Z,21.50
2022-12-27T19:40:19.735Z,21.50
2022-12-27T19:42:46.925Z,22.80
2022-12-27T19:45:15.200Z,22.42
2022-12-27T19:47:42.355Z,26.67
2022-12-27T19:50:10.461Z,21.75
2022-12-27T19:52:37.527Z,24.75
2022-12-27T19:55:08.745Z,22.10
2022-12-27T19:57:35.902Z,26.15
2022-12-27T20:00:12.043Z,24.35
2022-12-27T20:02:39.829Z,23.10
2022-12-27T20:05:07.190Z,21.23
2022-12-27T20:07:34.214Z,24.63
2022-12-27T20:10:01.284Z,22.27
2022-12-27T20:12:28.388Z,22.92
2022-12-27T20:14:55.486Z,22.13
2022-12-27T20:17:23.917Z,25.75
2022-12-27T20:19:51.679Z,23.48
2022-12-27T20:22:18.774Z,25.20
2022-12-27T20:24:47.123Z,31.77
2022-12-27T20:27:14.183Z,26.25
2022-12-27T20:29:41.213Z,31.77
2022-12-27T20:32:08.560Z,28.98
2022-12-27T20:34:35.809Z,22.17
2022-12-27T20:37:02.952Z,26.48
2022-12-27T20:39:30.018Z,26.90
2022-12-27T20:41:57.080Z,33.28
2022-12-27T20:44:24.213Z,30.15
2022-12-27T20:46:51.434Z,31.98
2022-12-27T20:49:18.516Z,31.25
2022-12-27T20:51:45.641Z,27.23
2022-12-27T20:54:13.899Z,37.08
2022-12-27T20:56:41.394Z,35.80
2022-12-27T20:59:08.466Z,36.08
2022-12-27T21:01:35.673Z,32.47
2022-12-27T21:04:03.959Z,35.08
2022-12-27T21:06:31.060Z,32.70
2022-12-27T21:08:58.590Z,33.63
2022-12-27T21:11:27.384Z,27.67
2022-12-27T21:13:54.639Z,30.25
2022-12-27T21:16:25.872Z,25.88
2022-12-27T21:18:52.951Z,30.70
2022-12-27T21:21:21.104Z,27.80
2022-12-27T21:23:48.323Z,26.98
2022-12-27T21:26:22.396Z,21.75
2022-12-27T21:28:49.641Z,30.58
2022-12-27T21:31:16.988Z,26.50
2022-12-27T21:33:44.043Z,27.80
2022-12-27T21:36:14.797Z,30.23
2022-12-27T21:38:41.869Z,30.08
2022-12-27T21:41:11.064Z,25.45
2022-12-27T21:43:38.151Z,25.55
2022-12-27T21:46:06.556Z,27.67
2022-12-27T21:48:33.762Z,20.45
2022-12-27T21:51:05.008Z,28.48
2022-12-27T21:53:32.122Z,27.02
2022-12-27T21:55:59.177Z,34.60
2022-12-27T21:58:26.305Z,24.73
2022-12-27T22:00:57.829Z,22.30
2022-12-27T22:03:25.256Z,27.38
2022-12-27T22:05:52.380Z,23.63
2022-12-27T22:08:19.427Z,28.25
2022-12-27T22:10:54.240Z,33.97
2022-12-27T22:13:21.353Z,25.05
2022-12-27T22:15:55.823Z,28.02
2022-12-27T22:18:22.912Z,28.10
2022-12-27T22:20:50.037Z,29.70
2022-12-27T22:23:17.157Z,28.05
2022-12-27T22:25:44.511Z,27.10
2022-12-27T22:28:11.592Z,27.17
2022-12-27T22:30:39.137Z,23.35
2022-12-27T22:33:06.385Z,29.25
2022-12-27T22:35:33.657Z,31.38
2022-12-27T22:38:00.756Z,34.00
2022-12-27T22:40:40.965Z,28.95
2022-12-27T22:43:13.120Z,23.05
2022-12-27T22:45:45.527Z,42.28
2022-12-27T22:48:15.986Z,28.60
2022-12-27T22:50:43.051Z,28.25
2022-12-27T22:53:10.116Z,28.95
2022-12-27T22:55:40.642Z,31.50
2022-12-27T23:00:35.001Z,33.40
2022-12-27T23:03:02.025Z,29.80
2022-12-27T23:05:29.033Z,29.77
2022-12-27T23:08:05.548Z,27.02
2022-12-27T23:10:33.967Z,32.65
2022-12-27T23:13:01.527Z,31.67
2022-12-27T23:15:28.573Z,32.72
2022-12-27T23:17:55.642Z,31.17
2022-12-27T23:20:22.685Z,28.00
2022-12-27T23:22:49.743Z,26.50
2022-12-27T23:25:16.901Z,27.13
2022-12-27T23:27:43.932Z,24.98
2022-12-27T23:30:11.411Z,28.90
2022-12-27T23:32:38.428Z,25.27
2022-12-27T23:35:05.673Z,27.48
2022-12-27T23:37:32.837Z,25.23
2022-12-27T23:39:59.926Z,26.23
2022-12-27T23:42:27.022Z,25.83
2022-12-27T23:44:54.176Z,25.35
2022-12-27T23:47:21.260Z,25.58
2022-12-27T23:49:48.300Z,24.63
2022-12-27T23:52:15.438Z,29.38
2022-12-27T23:54:42.510Z,24.33
2022-12-27T23:57:19.965Z,24.20
2022-12-27T23:59:49.163Z,22.38
